sensor_id;sensor_type;location;lat;lon;timestamp;pressure;altitude;pressure_sealevel;temperature;humidity
34586;BME280;20816;50.950;11.108;2023-04-20T00:01:26;98663.97;;;4.39;100.00
34586;BME280;20816;50.950;11.108;2023-04-20T00:03:52;98654.44;;;4.35;100.00
34586;BME280;20816;50.950;11.108;2023-04-20T00:06:20;98662.25;;;4.36;100.00
34586;BME280;20816;50.950;11.108;2023-04-20T00:08:47;98657.06;;;4.41;100.00
34586;BME280;20816;50.950;11.108;2023-04-20T00:11:14;98657.91;;;4.34;100.00
34586;BME280;20816;50.950;11.108;2023-04-20T00:13:40;98658.78;;;4.33;100.00
34586;BME280;20816;50.950;11.108;2023-04-20T00:16:07;98650.06;;;4.28;100.00
34586;BME280;20816;50.950;11.108;2023-04-20T00:18:34;98646.56;;;4.16;100.00
34586;BME280;20816;50.950;11.108;2023-04-20T00:21:00;98650.03;;;4.18;100.00
34586;BME280;20816;50.950;11.108;2023-04-20T00:23:27;98646.56;;;4.21;100.00
34586;BME280;20816;50.950;11.108;2023-04-20T00:25:54;98634.41;;;4.18;100.00
34586;BME280;20816;50.950;11.108;2023-04-20T00:28:21;98643.94;;;4.10;100.00
34586;BME280;20816;50.950;11.108;2023-04-20T00:30:48;98637.84;;;4.14;100.00
34586;BME280;20816;50.950;11.108;2023-04-20T00:33:14;98630.97;;;4.18;100.00
34586;BME280;20816;50.950;11.108;2023-04-20T00:35:41;98630.09;;;4.20;100.00
34586;BME280;20816;50.950;11.108;2023-04-20T00:38:08;98632.66;;;4.11;100.00
34586;BME280;20816;50.950;11.108;2023-04-20T00:40:34;98636.13;;;4.10;100.00
34586;BME280;20816;50.950;11.108;2023-04-20T00:43:11;98636.13;;;4.07;100.00
34586;BME280;20816;50.950;11.108;2023-04-20T00:45:38;98631.75;;;4.03;100.00
34586;BME280;20816;50.950;11.108;2023-04-20T00:48:06;98624.81;;;4.05;100.00
34586;BME280;20816;50.950;11.108;2023-04-20T00:50:33;98628.28;;;4.03;100.00
34586;BME280;20816;50.950;11.108;2023-04-20T00:53:01;98625.69;;;4.04;100.00
34586;BME280;20816;50.950;11.108;2023-04-20T00:55:29;98622.22;;;4.05;100.00
34586;BME280;20816;50.950;11.108;2023-04-20T00:57:56;98619.66;;;4.11;100.00
34586;BME280;20816;50.950;11.108;2023-04-20T01:00:24;98607.47;;;4.03;100.00
34586;BME280;20816;50.950;11.108;2023-04-20T01:02:51;98618.75;;;4.00;100.00
34586;BME280;20816;50.950;11.108;2023-04-20T01:05:19;98615.31;;;4.07;100.00
34586;BME280;20816;50.950;11.108;2023-04-20T01:07:48;98617.06;;;4.08;100.00
34586;BME280;20816;50.950;11.108;2023-04-20T01:10:15;98616.94;;;3.84;100.00
34586;BME280;20816;50.950;11.108;2023-04-20T01:12:41;98617.81;;;3.90;100.00
34586;BME280;20816;50.950;11.108;2023-04-20T01:15:09;98612.59;;;3.87;100.00
34586;BME280;20816;50.950;11.108;2023-04-20T01:17:36;98611.75;;;3.87;100.00
34586;BME280;20816;50.950;11.108;2023-04-20T01:20:08;98610.00;;;3.83;100.00
34586;BME280;20816;50.950;11.108;2023-04-20T01:22:48;98596.13;;;3.87;100.00
34586;BME280;20816;50.950;11.108;2023-04-20T01:25:17;98603.97;;;3.91;100.00
34586;BME280;20816;50.950;11.108;2023-04-20T01:27:43;98604.81;;;3.83;100.00
34586;BME280;20816;50.950;11.108;2023-04-20T01:30:11;98590.91;;;3.81;100.00
34586;BME280;20816;50.950;11.108;2023-04-20T01:32:38;98596.94;;;3.74;100.00
34586;BME280;20816;50.950;11.108;2023-04-20T01:35:07;98599.53;;;3.74;100.00
34586;BME280;20816;50.950;11.108;2023-04-20T01:37:34;98597.84;;;3.77;100.00
34586;BME280;20816;50.950;11.108;2023-04-20T01:40:01;98596.06;;;3.72;100.00
34586;BME280;20816;50.950;11.108;2023-04-20T01:42:28;98594.31;;;3.68;100.00
34586;BME280;20816;50.950;11.108;2023-04-20T01:44:55;98583.06;;;3.69;100.00
34586;BME280;20816;50.950;11.108;2023-04-20T01:47:22;98582.19;;;3.67;100.00
34586;BME280;20816;50.950;11.108;2023-04-20T01:49:49;98575.25;;;3.72;100.00
34586;BME280;20816;50.950;11.108;2023-04-20T01:52:15;98582.16;;;3.63;100.00
34586;BME280;20816;50.950;11.108;2023-04-20T01:54:42;98582.19;;;3.67;100.00
34586;BME280;20816;50.950;11.108;2023-04-20T01:57:09;98582.16;;;3.63;100.00
34586;BME280;20816;50.950;11.108;2023-04-20T01:59:35;98576.97;;;3.63;100.00
34586;BME280;20816;50.950;11.108;2023-04-20T02:02:02;98582.09;;;3.57;100.00
34586;BME280;20816;50.950;11.108;2023-04-20T02:04:29;98576.91;;;3.57;100.00
34586;BME280;20816;50.950;11.108;2023-04-20T02:06:56;98576.91;;;3.54;100.00
34586;BME280;20816;50.950;11.108;2023-04-20T02:09:23;98573.44;;;3.51;100.00
34586;BME280;20816;50.950;11.108;2023-04-20T02:11:49;98564.78;;;3.53;100.00
34586;BME280;20816;50.950;11.108;2023-04-20T02:14:16;98575.19;;;3.56;100.00
34586;BME280;20816;50.950;11.108;2023-04-20T02:16:43;98569.13;;;3.57;100.00
34586;BME280;20816;50.950;11.108;2023-04-20T02:19:10;98571.75;;;3.63;100.00
34586;BME280;20816;50.950;11.108;2023-04-20T02:21:36;98568.28;;;3.64;100.00
34586;BME280;20816;50.950;11.108;2023-04-20T02:24:03;98570.94;;;3.69;100.00
34586;BME280;20816;50.950;11.108;2023-04-20T02:26:31;98572.66;;;3.69;100.00
34586;BME280;20816;50.950;11.108;2023-04-20T02:28:58;98574.41;;;3.67;100.00
34586;BME280;20816;50.950;11.108;2023-04-20T02:31:24;98569.97;;;3.58;100.00
34586;BME280;20816;50.950;11.108;2023-04-20T02:33:51;98571.75;;;3.60;100.00
34586;BME280;20816;50.950;11.108;2023-04-20T02:36:18;98575.25;;;3.69;100.00
34586;BME280;20816;50.950;11.108;2023-04-20T02:38:45;98584.78;;;3.70;100.00
34586;BME280;20816;50.950;11.108;2023-04-20T02:41:11;98577.84;;;3.67;100.00
34586;BME280;20816;50.950;11.108;2023-04-20T02:43:38;98572.63;;;3.62;100.00
34586;BME280;20816;50.950;11.108;2023-04-20T02:46:05;98569.16;;;3.65;100.00
34586;BME280;20816;50.950;11.108;2023-04-20T02:48:33;98573.50;;;3.61;100.00
34586;BME280;20816;50.950;11.108;2023-04-20T02:50:59;98571.72;;;3.57;100.00
34586;BME280;20816;50.950;11.108;2023-04-20T02:53:26;98572.66;;;3.67;100.00
34586;BME280;20816;50.950;11.108;2023-04-20T02:55:53;98572.63;;;3.59;100.00
34586;BME280;20816;50.950;11.108;2023-04-20T02:58:19;98577.81;;;3.62;100.00
34586;BME280;20816;50.950;11.108;2023-04-20T03:00:46;98571.72;;;3.57;100.00
34586;BME280;20816;50.950;11.108;2023-04-20T03:03:13;98574.34;;;3.60;100.00
34586;BME280;20816;50.950;11.108;2023-04-20T03:05:41;98565.69;;;3.64;100.00
34586;BME280;20816;50.950;11.108;2023-04-20T03:08:07;98573.53;;;3.74;100.00
34586;BME280;20816;50.950;11.108;2023-04-20T03:10:34;98571.75;;;3.63;100.00
34586;BME280;20816;50.950;11.108;2023-04-20T03:13:01;98573.50;;;3.61;100.00
34586;BME280;20816;50.950;11.108;2023-04-20T03:15:27;98576.09;;;3.58;100.00
34586;BME280;20816;50.950;11.108;2023-04-20T03:17:54;98578.69;;;3.61;100.00
34586;BME280;20816;50.950;11.108;2023-04-20T03:20:21;98577.78;;;3.56;100.00
34586;BME280;20816;50.950;11.108;2023-04-20T03:22:47;98583.84;;;3.52;100.00
34586;BME280;20816;50.950;11.108;2023-04-20T03:25:14;98577.72;;;3.49;100.00
34586;BME280;20816;50.950;11.108;2023-04-20T03:27:41;98584.69;;;3.51;100.00
34586;BME280;20816;50.950;11.108;2023-04-20T03:30:08;98579.50;;;3.51;100.00
34586;BME280;20816;50.950;11.108;2023-04-20T03:32:35;98587.31;;;3.51;100.00
34586;BME280;20816;50.950;11.108;2023-04-20T03:35:01;98578.59;;;3.46;100.00
34586;BME280;20816;50.950;11.108;2023-04-20T03:37:28;98578.63;;;3.52;100.00
34586;BME280;20816;50.950;11.108;2023-04-20T03:39:55;98576.84;;;3.42;100.00
34586;BME280;20816;50.950;11.108;2023-04-20T03:42:22;98571.66;;;3.47;100.00
34586;BME280;20816;50.950;11.108;2023-04-20T03:44:48;98573.41;;;3.46;100.00
34586;BME280;20816;50.950;11.108;2023-04-20T03:47:15;98576.00;;;3.46;100.00
34586;BME280;20816;50.950;11.108;2023-04-20T03:49:42;98575.13;;;3.44;100.00
34586;BME280;20816;50.950;11.108;2023-04-20T03:52:08;98569.94;;;3.47;100.00
34586;BME280;20816;50.950;11.108;2023-04-20T03:54:35;98572.56;;;3.52;100.00
34586;BME280;20816;50.950;11.108;2023-04-20T03:57:02;98578.69;;;3.58;100.00
34586;BME280;20816;50.950;11.108;2023-04-20T03:59:29;98572.56;;;3.53;100.00
34586;BME280;20816;50.950;11.108;2023-04-20T04:01:56;98562.19;;;3.58;100.00
34586;BME280;20816;50.950;11.108;2023-04-20T04:04:23;98563.09;;;3.61;100.00
34586;BME280;20816;50.950;11.108;2023-04-20T04:06:50;98564.88;;;3.69;100.00
34586;BME280;20816;50.950;11.108;2023-04-20T04:09:17;98557.06;;;3.67;100.00
34586;BME280;20816;50.950;11.108;2023-04-20T04:11:44;98558.75;;;3.59;100.00
34586;BME280;20816;50.950;11.108;2023-04-20T04:14:11;98566.56;;;3.63;100.00
34586;BME280;20816;50.950;11.108;2023-04-20T04:16:37;98568.28;;;3.61;100.00
34586;BME280;20816;50.950;11.108;2023-04-20T04:19:04;98566.59;;;3.70;100.00
34586;BME280;20816;50.950;11.108;2023-04-20T04:21:31;98576.13;;;3.74;100.00
34586;BME280;20816;50.950;11.108;2023-04-20T04:23:58;98566.63;;;3.80;100.00
34586;BME280;20816;50.950;11.108;2023-04-20T04:26:24;98573.56;;;3.77;100.00
34586;BME280;20816;50.950;11.108;2023-04-20T04:28:52;98577.03;;;3.82;100.00
34586;BME280;20816;50.950;11.108;2023-04-20T04:31:19;98580.50;;;3.75;100.00
34586;BME280;20816;50.950;11.108;2023-04-20T04:33:47;98581.38;;;3.81;100.00
34586;BME280;20816;50.950;11.108;2023-04-20T04:36:15;98580.50;;;3.81;100.00
34586;BME280;20816;50.950;11.108;2023-04-20T04:38:42;98578.78;;;3.80;100.00
34586;BME280;20816;50.950;11.108;2023-04-20T04:41:12;98580.50;;;3.78;100.00
34586;BME280;20816;50.950;11.108;2023-04-20T04:43:40;98575.34;;;3.87;100.00
34586;BME280;20816;50.950;11.108;2023-04-20T04:46:07;98581.41;;;3.90;100.00
34586;BME280;20816;50.950;11.108;2023-04-20T04:48:40;98575.34;;;3.87;100.00
34586;BME280;20816;50.950;11.108;2023-04-20T04:51:08;98574.50;;;3.97;100.00
34586;BME280;20816;50.950;11.108;2023-04-20T04:53:35;98577.13;;;3.94;100.00
34586;BME280;20816;50.950;11.108;2023-04-20T04:56:03;98573.66;;;3.98;100.00
34586;BME280;20816;50.950;11.108;2023-04-20T04:58:30;98577.13;;;4.06;100.00
34586;BME280;20816;50.950;11.108;2023-04-20T05:00:56;98580.63;;;4.08;100.00
34586;BME280;20816;50.950;11.108;2023-04-20T05:03:23;98578.00;;;4.05;100.00
34586;BME280;20816;50.950;11.108;2023-04-20T05:05:50;98584.09;;;4.07;100.00
34586;BME280;20816;50.950;11.108;2023-04-20T05:08:17;98578.00;;;3.99;100.00
34586;BME280;20816;50.950;11.108;2023-04-20T05:10:44;98584.91;;;3.96;100.00
34586;BME280;20816;50.950;11.108;2023-04-20T05:13:10;98586.59;;;3.90;100.00
34586;BME280;20816;50.950;11.108;2023-04-20T05:15:37;98582.34;;;4.03;100.00
34586;BME280;20816;50.950;11.108;2023-04-20T05:18:04;98585.81;;;4.02;100.00
34586;BME280;20816;50.950;11.108;2023-04-20T05:20:31;98585.81;;;3.99;100.00
34586;BME280;20816;50.950;11.108;2023-04-20T05:22:58;98593.63;;;4.02;100.00
34586;BME280;20816;50.950;11.108;2023-04-20T05:25:24;98590.19;;;4.09;100.00
34586;BME280;20816;50.950;11.108;2023-04-20T05:27:51;98596.22;;;4.05;100.00
34586;BME280;20816;50.950;11.108;2023-04-20T05:30:18;98592.78;;;4.12;100.00
34586;BME280;20816;50.950;11.108;2023-04-20T05:32:47;98596.28;;;4.20;100.00
34586;BME280;20816;50.950;11.108;2023-04-20T05:35:17;98604.13;;;4.36;100.00
34586;BME280;20816;50.950;11.108;2023-04-20T05:37:44;98599.78;;;4.26;100.00
34586;BME280;20816;50.950;11.108;2023-04-20T05:40:11;98603.25;;;4.34;100.00
34586;BME280;20816;50.950;11.108;2023-04-20T05:42:37;98605.03;;;4.41;100.00
34586;BME280;20816;50.950;11.108;2023-04-20T05:45:05;98608.50;;;4.49;100.00
34586;BME280;20816;50.950;11.108;2023-04-20T05:47:32;98598.94;;;4.43;100.00
34586;BME280;20816;50.950;11.108;2023-04-20T05:49:59;98608.53;;;4.58;100.00
34586;BME280;20816;50.950;11.108;2023-04-20T05:52:26;98612.00;;;4.48;100.00
34586;BME280;20816;50.950;11.108;2023-04-20T05:54:53;98611.13;;;4.52;100.00
34586;BME280;20816;50.950;11.108;2023-04-20T05:57:19;98613.72;;;4.49;100.00
34586;BME280;20816;50.950;11.108;2023-04-20T05:59:48;98611.13;;;4.49;100.00
34586;BME280;20816;50.950;11.108;2023-04-20T06:02:15;98606.81;;;4.57;100.00
34586;BME280;20816;50.950;11.108;2023-04-20T06:04:42;98618.06;;;4.55;100.00
34586;BME280;20816;50.950;11.108;2023-04-20T06:07:09;98620.69;;;4.65;100.00
34586;BME280;20816;50.950;11.108;2023-04-20T06:09:36;98612.88;;;4.67;100.00
34586;BME280;20816;50.950;11.108;2023-04-20T06:12:03;98610.28;;;4.74;100.00
34586;BME280;20816;50.950;11.108;2023-04-20T06:14:30;98621.56;;;4.75;100.00
34586;BME280;20816;50.950;11.108;2023-04-20T06:16:57;98620.72;;;4.84;100.00
34586;BME280;20816;50.950;11.108;2023-04-20T06:19:23;98623.31;;;4.88;100.00
34586;BME280;20816;50.950;11.108;2023-04-20T06:21:50;98628.50;;;4.79;100.00
34586;BME280;20816;50.950;11.108;2023-04-20T06:24:17;98625.91;;;4.87;100.00
34586;BME280;20816;50.950;11.108;2023-04-20T06:26:44;98625.03;;;4.78;100.00
34586;BME280;20816;50.950;11.108;2023-04-20T06:29:10;98625.06;;;4.74;100.00
34586;BME280;20816;50.950;11.108;2023-04-20T06:31:37;98632.88;;;4.85;100.00
34586;BME280;20816;50.950;11.108;2023-04-20T06:34:04;98625.94;;;4.93;100.00
34586;BME280;20816;50.950;11.108;2023-04-20T06:36:30;98621.63;;;5.05;100.00
34586;BME280;20816;50.950;11.108;2023-04-20T06:38:58;98631.16;;;5.17;100.00
34586;BME280;20816;50.950;11.108;2023-04-20T06:41:24;98627.69;;;5.23;100.00
34586;BME280;20816;50.950;11.108;2023-04-20T06:43:51;98633.75;;;5.17;100.00
34586;BME280;20816;50.950;11.108;2023-04-20T06:46:18;98631.16;;;5.17;100.00
34586;BME280;20816;50.950;11.108;2023-04-20T06:48:44;98644.19;;;5.14;100.00
34586;BME280;20816;50.950;11.108;2023-04-20T06:51:12;98648.50;;;5.12;100.00
34586;BME280;20816;50.950;11.108;2023-04-20T06:53:39;98643.31;;;5.15;100.00
34586;BME280;20816;50.950;11.108;2023-04-20T06:56:06;98648.53;;;5.20;100.00
34586;BME280;20816;50.950;11.108;2023-04-20T06:58:33;98643.31;;;5.18;100.00
34586;BME280;20816;50.950;11.108;2023-04-20T07:00:59;98652.00;;;5.17;100.00
34586;BME280;20816;50.950;11.108;2023-04-20T07:03:27;98652.00;;;5.19;100.00
34586;BME280;20816;50.950;11.108;2023-04-20T07:05:54;98652.88;;;5.25;100.00
34586;BME280;20816;50.950;11.108;2023-04-20T07:08:21;98643.31;;;5.37;100.00
34586;BME280;20816;50.950;11.108;2023-04-20T07:10:48;98652.00;;;5.43;100.00
34586;BME280;20816;50.950;11.108;2023-04-20T07:13:14;98640.72;;;5.49;100.00
34586;BME280;20816;50.950;11.108;2023-04-20T07:15:43;98644.19;;;5.48;100.00
34586;BME280;20816;50.950;11.108;2023-04-20T07:18:11;98641.56;;;5.66;100.00
34586;BME280;20816;50.950;11.108;2023-04-20T07:20:38;98637.16;;;5.83;100.00
34586;BME280;20816;50.950;11.108;2023-04-20T07:23:04;98633.69;;;6.03;100.00
34586;BME280;20816;50.950;11.108;2023-04-20T07:25:32;98632.75;;;6.22;100.00
34586;BME280;20816;50.950;11.108;2023-04-20T07:27:58;98632.75;;;6.21;100.00
34586;BME280;20816;50.950;11.108;2023-04-20T07:30:25;98637.03;;;6.34;100.00
34586;BME280;20816;50.950;11.108;2023-04-20T07:32:52;98634.38;;;6.44;100.00
34586;BME280;20816;50.950;11.108;2023-04-20T07:35:19;98630.88;;;6.49;100.00
34586;BME280;20816;50.950;11.108;2023-04-20T07:37:46;98628.25;;;6.53;100.00
34586;BME280;20816;50.950;11.108;2023-04-20T07:40:13;98627.38;;;6.53;100.00
34586;BME280;20816;50.950;11.108;2023-04-20T07:42:40;98628.38;;;6.29;100.00
34586;BME280;20816;50.950;11.108;2023-04-20T07:45:08;98628.31;;;6.33;100.00
34586;BME280;20816;50.950;11.108;2023-04-20T07:47:36;98636.19;;;6.30;100.00
34586;BME280;20816;50.950;11.108;2023-04-20T07:50:04;98635.34;;;6.28;100.00
34586;BME280;20816;50.950;11.108;2023-04-20T07:52:31;98635.34;;;6.24;100.00
34586;BME280;20816;50.950;11.108;2023-04-20T07:54:58;98644.97;;;6.08;100.00
34586;BME280;20816;50.950;11.108;2023-04-20T07:57:25;98648.44;;;6.07;100.00
34586;BME280;20816;50.950;11.108;2023-04-20T07:59:52;98646.69;;;6.12;100.00
34586;BME280;20816;50.950;11.108;2023-04-20T08:02:19;98649.25;;;6.27;100.00
34586;BME280;20816;50.950;11.108;2023-04-20T08:04:46;98648.34;;;6.31;100.00
34586;BME280;20816;50.950;11.108;2023-04-20T08:07:15;98648.38;;;6.28;100.00
34586;BME280;20816;50.950;11.108;2023-04-20T08:09:42;98643.09;;;6.34;100.00
34586;BME280;20816;50.950;11.108;2023-04-20T08:12:09;98637.97;;;6.22;100.00
34586;BME280;20816;50.950;11.108;2023-04-20T08:14:35;98648.34;;;6.31;100.00
34586;BME280;20816;50.950;11.108;2023-04-20T08:17:03;98647.50;;;6.29;100.00
34586;BME280;20816;50.950;11.108;2023-04-20T08:19:30;98640.53;;;6.31;100.00
34586;BME280;20816;50.950;11.108;2023-04-20T08:21:57;98640.56;;;6.28;100.00
34586;BME280;20816;50.950;11.108;2023-04-20T08:24:25;98643.16;;;6.25;100.00
34586;BME280;20816;50.950;11.108;2023-04-20T08:26:52;98649.22;;;6.38;100.00
34586;BME280;20816;50.950;11.108;2023-04-20T08:29:19;98650.88;;;6.53;100.00
34586;BME280;20816;50.950;11.108;2023-04-20T08:31:46;98649.88;;;6.73;100.00
34586;BME280;20816;50.950;11.108;2023-04-20T08:34:16;98641.13;;;6.82;100.00
34586;BME280;20816;50.950;11.108;2023-04-20T08:36:43;98646.41;;;6.73;100.00
34586;BME280;20816;50.950;11.108;2023-04-20T08:39:13;98645.50;;;6.75;100.00
34586;BME280;20816;50.950;11.108;2023-04-20T08:41:40;98637.63;;;6.83;100.00
34586;BME280;20816;50.950;11.108;2023-04-20T08:44:07;98632.28;;;7.03;100.00
34586;BME280;20816;50.950;11.108;2023-04-20T08:46:34;98644.28;;;7.30;100.00
34586;BME280;20816;50.950;11.108;2023-04-20T08:49:01;98628.59;;;7.33;100.00
34586;BME280;20816;50.950;11.108;2023-04-20T08:51:29;98632.13;;;7.26;100.00
34586;BME280;20816;50.950;11.108;2023-04-20T08:54:04;98635.41;;;7.46;100.00
34586;BME280;20816;50.950;11.108;2023-04-20T08:56:36;98633.59;;;7.56;100.00
34586;BME280;20816;50.950;11.108;2023-04-20T08:59:04;98637.28;;;7.32;100.00
34586;BME280;20816;50.950;11.108;2023-04-20T09:01:31;98642.66;;;7.14;100.00
34586;BME280;20816;50.950;11.108;2023-04-20T09:04:02;98643.66;;;7.00;100.00
34586;BME280;20816;50.950;11.108;2023-04-20T09:06:29;98626.97;;;7.14;100.00
34586;BME280;20816;50.950;11.108;2023-04-20T09:08:56;98623.81;;;7.73;98.70
34586;BME280;20816;50.950;11.108;2023-04-20T09:11:25;98633.44;;;8.51;96.58
34586;BME280;20816;50.950;11.108;2023-04-20T09:16:25;98628.44;;;8.31;97.76
34586;BME280;20816;50.950;11.108;2023-04-20T09:18:54;98641.47;;;8.39;97.36
34586;BME280;20816;50.950;11.108;2023-04-20T09:21:22;98643.72;;;7.88;95.93
34586;BME280;20816;50.950;11.108;2023-04-20T09:23:57;98643.50;;;8.09;96.59
34586;BME280;20816;50.950;11.108;2023-04-20T09:26:24;98634.72;;;8.13;97.82
34586;BME280;20816;50.950;11.108;2023-04-20T09:28:51;98634.78;;;8.10;95.68
34586;BME280;20816;50.950;11.108;2023-04-20T09:31:20;98636.50;;;8.14;95.89
34586;BME280;20816;50.950;11.108;2023-04-20T09:34:01;98633.88;;;8.14;96.45
34586;BME280;20816;50.950;11.108;2023-04-20T09:36:36;98643.34;;;8.25;96.26
34586;BME280;20816;50.950;11.108;2023-04-20T09:39:10;98641.84;;;8.02;95.71
34586;BME280;20816;50.950;11.108;2023-04-20T09:41:39;98639.00;;;8.22;96.00
34586;BME280;20816;50.950;11.108;2023-04-20T09:44:07;98627.47;;;8.40;95.33
34586;BME280;20816;50.950;11.108;2023-04-20T09:46:36;98624.78;;;8.45;94.62
34586;BME280;20816;50.950;11.108;2023-04-20T09:49:05;98628.31;;;8.42;92.70
34586;BME280;20816;50.950;11.108;2023-04-20T09:51:35;98636.22;;;9.02;92.41
34586;BME280;20816;50.950;11.108;2023-04-20T09:54:03;98625.84;;;8.96;89.92
34586;BME280;20816;50.950;11.108;2023-04-20T09:56:31;98635.91;;;8.63;91.21
34586;BME280;20816;50.950;11.108;2023-04-20T09:58:59;98631.66;;;8.53;93.13
34586;BME280;20816;50.950;11.108;2023-04-20T10:01:30;98636.00;;;8.54;91.98
34586;BME280;20816;50.950;11.108;2023-04-20T10:04:01;98625.53;;;8.54;90.94
34586;BME280;20816;50.950;11.108;2023-04-20T10:06:31;98628.22;;;8.50;91.57
34586;BME280;20816;50.950;11.108;2023-04-20T10:09:04;98621.31;;;8.44;91.31
34586;BME280;20816;50.950;11.108;2023-04-20T10:11:34;98623.50;;;8.75;91.44
34586;BME280;20816;50.950;11.108;2023-04-20T10:14:18;98618.00;;;8.93;88.27
34586;BME280;20816;50.950;11.108;2023-04-20T10:16:57;98623.16;;;8.99;88.10
34586;BME280;20816;50.950;11.108;2023-04-20T10:19:38;98613.25;;;9.18;88.31
34586;BME280;20816;50.950;11.108;2023-04-20T10:22:07;98609.63;;;9.25;87.20
34586;BME280;20816;50.950;11.108;2023-04-20T10:24:34;98615.75;;;9.25;86.80
34586;BME280;20816;50.950;11.108;2023-04-20T10:27:15;98615.25;;;9.01;86.85
34586;BME280;20816;50.950;11.108;2023-04-20T10:29:42;98617.31;;;8.82;88.46
34586;BME280;20816;50.950;11.108;2023-04-20T10:32:20;98612.25;;;8.68;88.86
34586;BME280;20816;50.950;11.108;2023-04-20T10:34:47;98620.91;;;8.73;88.28
34586;BME280;20816;50.950;11.108;2023-04-20T10:37:13;98611.44;;;8.64;89.51
34586;BME280;20816;50.950;11.108;2023-04-20T10:39:45;98606.97;;;8.69;89.36
34586;BME280;20816;50.950;11.108;2023-04-20T10:42:12;98601.69;;;8.74;88.77
34586;BME280;20816;50.950;11.108;2023-04-20T10:44:53;98607.72;;;8.79;90.51
34586;BME280;20816;50.950;11.108;2023-04-20T10:47:30;98606.84;;;8.80;90.00
34586;BME280;20816;50.950;11.108;2023-04-20T10:50:10;98600.47;;;8.95;91.18
34586;BME280;20816;50.950;11.108;2023-04-20T10:52:40;98598.53;;;9.09;88.06
34586;BME280;20816;50.950;11.108;2023-04-20T10:55:21;98595.25;;;8.95;88.47
34586;BME280;20816;50.950;11.108;2023-04-20T10:57:49;98591.59;;;9.05;87.65
34586;BME280;20816;50.950;11.108;2023-04-20T11:00:20;98583.47;;;9.22;88.37
34586;BME280;20816;50.950;11.108;2023-04-20T11:02:49;98581.97;;;9.07;86.78
34586;BME280;20816;50.950;11.108;2023-04-20T11:05:18;98584.03;;;8.85;89.47
34586;BME280;20816;50.950;11.108;2023-04-20T11:07:52;98582.06;;;8.99;90.49
34586;BME280;20816;50.950;11.108;2023-04-20T11:10:21;98577.41;;;9.17;89.49
34586;BME280;20816;50.950;11.108;2023-04-20T11:12:49;98580.31;;;9.00;89.92
34586;BME280;20816;50.950;11.108;2023-04-20T11:15:17;98570.31;;;9.23;90.84
34586;BME280;20816;50.950;11.108;2023-04-20T11:17:44;98560.59;;;9.30;90.82
34586;BME280;20816;50.950;11.108;2023-04-20T11:20:13;98561.31;;;9.40;90.46
34586;BME280;20816;50.950;11.108;2023-04-20T11:22:42;98555.63;;;9.63;90.46
34586;BME280;20816;50.950;11.108;2023-04-20T11:25:10;98565.41;;;9.54;88.76
34586;BME280;20816;50.950;11.108;2023-04-20T11:27:38;98550.28;;;9.67;89.10
34586;BME280;20816;50.950;11.108;2023-04-20T11:30:06;98548.75;;;9.57;88.28
34586;BME280;20816;50.950;11.108;2023-04-20T11:32:35;98550.19;;;9.73;87.88
34586;BME280;20816;50.950;11.108;2023-04-20T11:35:06;98538.13;;;10.06;88.24
34586;BME280;20816;50.950;11.108;2023-04-20T11:37:47;98540.91;;;9.99;86.49
34586;BME280;20816;50.950;11.108;2023-04-20T11:40:17;98531.78;;;10.18;86.88
34586;BME280;20816;50.950;11.108;2023-04-20T11:42:43;98535.13;;;10.26;85.90
34586;BME280;20816;50.950;11.108;2023-04-20T11:45:11;98537.72;;;10.28;85.61
34586;BME280;20816;50.950;11.108;2023-04-20T11:47:38;98545.41;;;9.92;86.18
34586;BME280;20816;50.950;11.108;2023-04-20T11:50:07;98532.00;;;9.64;88.01
34586;BME280;20816;50.950;11.108;2023-04-20T11:52:35;98534.97;;;9.46;89.27
34586;BME280;20816;50.950;11.108;2023-04-20T11:55:03;98548.28;;;9.34;90.42
34586;BME280;20816;50.950;11.108;2023-04-20T11:57:30;98550.97;;;9.31;92.79
34586;BME280;20816;50.950;11.108;2023-04-20T11:59:57;98545.72;;;9.31;92.06
34586;BME280;20816;50.950;11.108;2023-04-20T12:02:24;98547.94;;;9.04;91.19
34586;BME280;20816;50.950;11.108;2023-04-20T12:04:51;98555.19;;;8.87;92.45
34586;BME280;20816;50.950;11.108;2023-04-20T12:07:18;98548.66;;;9.11;93.46
34586;BME280;20816;50.950;11.108;2023-04-20T12:09:44;98554.22;;;8.92;93.13
34586;BME280;20816;50.950;11.108;2023-04-20T12:12:11;98553.94;;;8.55;93.68
34586;BME280;20816;50.950;11.108;2023-04-20T12:14:38;98563.56;;;8.52;93.60
34586;BME280;20816;50.950;11.108;2023-04-20T12:17:05;98560.16;;;8.48;94.35
34586;BME280;20816;50.950;11.108;2023-04-20T12:19:32;98560.13;;;8.50;95.47
34586;BME280;20816;50.950;11.108;2023-04-20T12:21:59;98561.06;;;8.44;95.60
34586;BME280;20816;50.950;11.108;2023-04-20T12:24:25;98563.00;;;8.27;94.93
34586;BME280;20816;50.950;11.108;2023-04-20T12:26:52;98559.44;;;8.34;96.10
34586;BME280;20816;50.950;11.108;2023-04-20T12:29:20;98554.88;;;8.50;96.21
34586;BME280;20816;50.950;11.108;2023-04-20T12:31:47;98554.16;;;8.37;97.77
34586;BME280;20816;50.950;11.108;2023-04-20T12:34:14;98550.63;;;8.41;96.00
34586;BME280;20816;50.950;11.108;2023-04-20T12:36:41;98552.59;;;8.24;95.42
34586;BME280;20816;50.950;11.108;2023-04-20T12:39:08;98546.66;;;8.09;95.69
34586;BME280;20816;50.950;11.108;2023-04-20T12:41:37;98542.19;;;8.18;96.45
34586;BME280;20816;50.950;11.108;2023-04-20T12:44:04;98539.31;;;8.39;95.76
34586;BME280;20816;50.950;11.108;2023-04-20T12:46:34;98531.41;;;8.42;95.75
34586;BME280;20816;50.950;11.108;2023-04-20T12:49:00;98536.47;;;8.54;93.94
34586;BME280;20816;50.950;11.108;2023-04-20T12:51:27;98512.38;;;8.88;94.03
34586;BME280;20816;50.950;11.108;2023-04-20T12:53:54;98511.00;;;9.16;93.88
34586;BME280;20816;50.950;11.108;2023-04-20T12:56:20;98502.38;;;9.10;91.23
34586;BME280;20816;50.950;11.108;2023-04-20T12:58:47;98502.75;;;9.36;92.21